createdAt,value
2022-08-27T00:00:15.346Z,18.60
2022-08-27T00:02:43.030Z,18.55
2022-08-27T00:05:14.815Z,18.48
2022-08-27T00:07:42.729Z,18.45
2022-08-27T00:10:14.959Z,18.47
2022-08-27T00:12:41.944Z,18.46
2022-08-27T00:15:09.535Z,18.48
2022-08-27T00:17:38.720Z,18.52
2022-08-27T00:20:06.969Z,18.49
2022-08-27T00:22:33.882Z,18.52
2022-08-27T00:25:00.776Z,18.56
2022-08-27T00:27:27.435Z,18.55
2022-08-27T00:29:54.290Z,18.54
2022-08-27T00:32:21.121Z,18.45
2022-08-27T00:34:47.772Z,18.42
2022-08-27T00:37:14.989Z,18.35
2022-08-27T00:39:41.779Z,18.34
2022-08-27T00:42:08.622Z,18.37
2022-08-27T00:44:35.505Z,18.32
2022-08-27T00:47:11.099Z,18.25
2022-08-27T00:50:12.816Z,18.21
2022-08-27T00:52:56.426Z,18.21
2022-08-27T00:55:28.697Z,18.20
2022-08-27T00:58:04.907Z,18.22
2022-08-27T01:00:32.594Z,18.24
2022-08-27T01:02:59.398Z,18.18
2022-08-27T01:05:28.018Z,18.20
2022-08-27T01:07:59.381Z,18.25
2022-08-27T01:10:28.547Z,18.25
2022-08-27T01:12:56.567Z,18.28
2022-08-27T01:15:26.446Z,18.35
2022-08-27T01:17:54.485Z,18.38
2022-08-27T01:20:30.487Z,18.41
2022-08-27T01:23:25.222Z,18.41
2022-08-27T01:25:52.535Z,18.47
2022-08-27T01:28:23.568Z,18.47
2022-08-27T01:30:53.428Z,18.47
2022-08-27T01:33:21.445Z,18.46
2022-08-27T01:35:50.802Z,18.41
2022-08-27T01:38:30.903Z,18.39
2022-08-27T01:41:00.293Z,18.41
2022-08-27T01:43:29.233Z,18.44
2022-08-27T01:45:55.873Z,18.36
2022-08-27T01:48:22.784Z,18.37
2022-08-27T01:50:50.263Z,18.38
2022-08-27T01:53:25.839Z,18.36
2022-08-27T01:55:54.399Z,18.35
2022-08-27T01:58:25.151Z,18.37
2022-08-27T02:00:56.641Z,18.35
2022-08-27T02:03:24.642Z,18.37
2022-08-27T02:05:51.812Z,18.35
2022-08-27T02:08:19.442Z,18.36
2022-08-27T02:10:48.166Z,18.37
2022-08-27T02:13:15.059Z,18.36
2022-08-27T02:15:42.944Z,18.33
2022-08-27T02:18:10.937Z,18.35
2022-08-27T02:20:37.869Z,18.35
2022-08-27T02:23:04.957Z,18.34
2022-08-27T02:25:31.677Z,18.37
2022-08-27T02:28:00.339Z,18.44
2022-08-27T02:30:28.766Z,18.42
2022-08-27T02:32:55.464Z,18.38
2022-08-27T02:35:24.175Z,18.41
2022-08-27T02:37:52.004Z,18.43
2022-08-27T02:40:21.953Z,18.37
2022-08-27T02:42:49.234Z,18.41
2022-08-27T02:45:16.740Z,18.38
2022-08-27T02:47:44.022Z,18.35
2022-08-27T02:50:11.213Z,18.38
2022-08-27T02:52:38.096Z,18.29
2022-08-27T02:55:05.952Z,18.34
2022-08-27T02:57:36.353Z,18.27
2022-08-27T03:00:07.299Z,18.24
2022-08-27T03:02:34.067Z,18.19
2022-08-27T03:05:01.055Z,18.18
2022-08-27T03:07:27.707Z,18.14
2022-08-27T03:09:54.325Z,18.10
2022-08-27T03:12:22.881Z,18.09
2022-08-27T03:14:51.948Z,18.13
2022-08-27T03:17:37.306Z,18.13
2022-08-27T03:20:05.993Z,18.09
2022-08-27T03:22:32.830Z,18.10
2022-08-27T03:25:02.441Z,18.11
2022-08-27T03:27:29.374Z,18.11
2022-08-27T03:29:57.127Z,18.07
2022-08-27T03:32:26.262Z,18.04
2022-08-27T03:34:53.099Z,17.99
2022-08-27T03:37:19.700Z,17.96
2022-08-27T03:39:46.559Z,17.93
2022-08-27T03:42:13.315Z,17.90
2022-08-27T03:44:40.167Z,17.89
2022-08-27T03:47:07.094Z,17.91
2022-08-27T03:49:33.860Z,17.97
2022-08-27T03:52:00.694Z,17.96
2022-08-27T03:54:27.442Z,17.94
2022-08-27T03:56:54.145Z,17.96
2022-08-27T03:59:20.980Z,18.00
2022-08-27T04:01:47.698Z,18.00
2022-08-27T04:04:14.705Z,18.03
2022-08-27T04:06:41.699Z,18.01
2022-08-27T04:09:08.378Z,18.01
2022-08-27T04:11:35.569Z,17.97
2022-08-27T04:14:14.524Z,17.98
2022-08-27T04:16:52.462Z,17.97
2022-08-27T04:19:20.028Z,17.98
2022-08-27T04:21:48.817Z,17.96
2022-08-27T04:24:15.806Z,17.89
2022-08-27T04:26:45.658Z,17.86
2022-08-27T04:29:12.518Z,17.87
2022-08-27T04:31:39.314Z,17.90
2022-08-27T04:34:07.723Z,17.97
2022-08-27T04:36:34.346Z,18.01
2022-08-27T04:39:01.317Z,17.99
2022-08-27T04:41:29.029Z,17.97
2022-08-27T04:43:58.719Z,17.97
2022-08-27T04:46:29.085Z,17.96
2022-08-27T04:48:57.855Z,17.99
2022-08-27T04:51:25.076Z,18.03
2022-08-27T04:53:52.422Z,18.10
2022-08-27T04:56:22.716Z,18.09
2022-08-27T04:58:51.374Z,18.14
2022-08-27T05:01:20.604Z,18.14
2022-08-27T05:03:47.360Z,18.15
2022-08-27T05:06:14.443Z,18.18
2022-08-27T05:08:41.594Z,18.12
2022-08-27T05:11:13.602Z,18.18
2022-08-27T05:13:40.842Z,18.24
2022-08-27T05:16:11.351Z,18.32
2022-08-27T05:18:42.268Z,18.31
2022-08-27T05:21:28.662Z,18.37
2022-08-27T05:23:57.233Z,18.40
2022-08-27T05:26:24.022Z,18.42
2022-08-27T05:28:51.137Z,18.43
2022-08-27T05:31:19.625Z,18.41
2022-08-27T05:33:47.418Z,18.48
2022-08-27T05:36:22.823Z,18.45
2022-08-27T05:38:50.407Z,18.46
2022-08-27T05:41:25.029Z,18.53
2022-08-27T05:43:59.253Z,18.47
2022-08-27T05:46:29.145Z,18.44
2022-08-27T05:48:58.270Z,18.46
2022-08-27T05:51:28.405Z,18.49
2022-08-27T05:53:56.866Z,18.52
2022-08-27T05:56:25.832Z,18.62
2022-08-27T05:59:11.360Z,18.64
2022-08-27T06:01:42.781Z,18.68
2022-08-27T06:04:10.550Z,18.82
2022-08-27T06:06:39.402Z,18.92
2022-08-27T06:09:07.125Z,19.01
2022-08-27T06:11:33.872Z,19.00
2022-08-27T06:14:00.880Z,19.04
2022-08-27T06:16:27.981Z,19.07
2022-08-27T06:18:56.829Z,19.14
2022-08-27T06:21:24.768Z,19.17
2022-08-27T06:23:52.828Z,19.22
2022-08-27T06:26:21.626Z,19.28
2022-08-27T06:28:49.658Z,19.33
2022-08-27T06:31:27.595Z,19.33
2022-08-27T06:34:02.915Z,19.35
2022-08-27T06:36:37.548Z,19.38
2022-08-27T06:39:04.348Z,19.43
2022-08-27T06:41:31.993Z,19.47
2022-08-27T06:43:58.589Z,19.58
2022-08-27T06:46:27.690Z,19.67
2022-08-27T06:48:56.505Z,19.81
2022-08-27T06:51:26.345Z,19.91
2022-08-27T06:53:55.689Z,20.02
2022-08-27T06:56:22.866Z,20.09
2022-08-27T06:58:56.072Z,20.17
2022-08-27T07:01:28.186Z,20.23
2022-08-27T07:04:00.236Z,20.28
2022-08-27T07:06:29.325Z,20.35
2022-08-27T07:08:57.154Z,20.41
2022-08-27T07:11:25.049Z,20.49
2022-08-27T07:13:52.572Z,20.50
2022-08-27T07:16:22.792Z,20.55
2022-08-27T07:18:53.208Z,20.61
2022-08-27T07:21:21.245Z,20.65
2022-08-27T07:23:50.166Z,20.59
2022-08-27T07:26:17.892Z,20.54
2022-08-27T07:28:46.563Z,20.48
2022-08-27T07:31:17.111Z,20.40
2022-08-27T07:33:50.749Z,20.37
2022-08-27T07:36:21.625Z,20.28
2022-08-27T07:39:00.727Z,20.32
2022-08-27T07:41:31.148Z,20.31
2022-08-27T07:44:20.028Z,20.36
2022-08-27T07:46:48.724Z,20.50
2022-08-27T07:49:20.250Z,20.51
2022-08-27T07:51:47.207Z,20.57
2022-08-27T07:54:14.816Z,20.65
2022-08-27T07:56:41.813Z,20.75
2022-08-27T07:59:09.009Z,20.87
2022-08-27T08:01:36.088Z,21.01
2022-08-27T08:04:03.098Z,21.10
2022-08-27T08:06:30.009Z,21.22
2022-08-27T08:08:56.720Z,21.32
2022-08-27T08:11:23.532Z,21.29
2022-08-27T08:13:50.381Z,21.34
2022-08-27T08:16:17.070Z,21.42
2022-08-27T08:18:43.979Z,21.63
2022-08-27T08:21:13.077Z,21.80
2022-08-27T08:23:40.576Z,21.96
2022-08-27T08:26:09.115Z,22.07
2022-08-27T08:28:36.626Z,22.32
2022-08-27T08:31:03.565Z,22.61
2022-08-27T08:33:31.588Z,22.52
2022-08-27T08:36:10.766Z,22.61
2022-08-27T08:38:38.194Z,22.67
2022-08-27T08:41:07.208Z,22.64
2022-08-27T08:43:39.342Z,22.67
2022-08-27T08:46:09.958Z,22.57
2022-08-27T08:48:41.377Z,22.61
2022-08-27T08:51:25.576Z,22.68
2022-08-27T08:53:58.453Z,22.84
2022-08-27T08:56:35.246Z,22.81
2022-08-27T08:59:19.074Z,22.76
2022-08-27T09:01:46.001Z,22.90
2022-08-27T09:04:13.243Z,22.91
2022-08-27T09:07:28.385Z,22.95
2022-08-27T09:10:21.395Z,23.13
2022-08-27T09:12:48.496Z,23.36
2022-08-27T09:15:25.239Z,23.53
2022-08-27T09:17:51.934Z,23.52
2022-08-27T09:20:25.675Z,23.45
2022-08-27T09:23:22.922Z,23.34
2022-08-27T09:25:49.648Z,23.21
2022-08-27T09:28:42.519Z,23.38
2022-08-27T09:31:20.586Z,23.43
2022-08-27T09:33:56.432Z,23.56
2022-08-27T09:36:24.116Z,23.45
2022-08-27T09:39:04.234Z,23.40
2022-08-27T09:41:36.570Z,23.44
2022-08-27T09:44:14.813Z,23.42
2022-08-27T09:46:52.245Z,23.28
2022-08-27T09:49:19.996Z,23.29
2022-08-27T09:51:48.501Z,23.27
2022-08-27T09:54:46.802Z,23.52
2022-08-27T09:57:28.797Z,23.62
2022-08-27T09:59:57.759Z,23.52
2022-08-27T10:02:26.933Z,23.41
2022-08-27T10:04:58.734Z,23.19
2022-08-27T10:07:38.593Z,23.24
2022-08-27T10:10:17.980Z,23.41
2022-08-27T10:13:10.147Z,23.47
2022-08-27T10:16:20.545Z,23.39
2022-08-27T10:18:56.494Z,23.48
2022-08-27T10:21:28.488Z,23.62
2022-08-27T10:24:33.400Z,23.75
2022-08-27T10:27:49.829Z,23.82
2022-08-27T10:30:25.005Z,23.94
2022-08-27T10:33:23.648Z,24.12
2022-08-27T10:36:16.789Z,24.16
2022-08-27T10:39:06.162Z,24.09
2022-08-27T10:41:39.739Z,24.13
2022-08-27T10:44:43.253Z,24.23
2022-08-27T10:47:31.562Z,24.15
2022-08-27T10:50:27.090Z,24.03
2022-08-27T10:53:10.691Z,24.05
2022-08-27T10:55:51.401Z,23.96
2022-08-27T10:58:48.415Z,23.92
2022-08-27T11:01:59.919Z,23.77
2022-08-27T11:04:32.730Z,23.72
2022-08-27T11:07:05.428Z,23.75
2022-08-27T11:10:25.360Z,23.80
2022-08-27T11:12:57.916Z,23.94
2022-08-27T11:15:30.115Z,24.09
2022-08-27T11:18:01.713Z,23.99
2022-08-27T11:20:53.696Z,24.09
2022-08-27T11:23:27.259Z,24.08
2022-08-27T11:26:01.927Z,23.95
2022-08-27T11:28:41.728Z,23.85
2022-08-27T11:31:50.462Z,23.73
2022-08-27T11:34:33.939Z,23.64
2022-08-27T11:37:26.352Z,23.73
2022-08-27T11:40:04.896Z,23.89
2022-08-27T11:43:04.069Z,24.00
2022-08-27T11:45:40.030Z,23.95
2022-08-27T11:48:43.415Z,23.99
2022-08-27T11:51:28.681Z,24.29
2022-08-27T11:54:01.865Z,24.45
2022-08-27T11:56:42.025Z,24.31
2022-08-27T11:59:43.621Z,24.33
2022-08-27T12:02:20.679Z,24.32
2022-08-27T12:04:49.562Z,24.31
2022-08-27T12:07:30.792Z,24.48
2022-08-27T12:10:27.508Z,24.46
2022-08-27T12:13:02.829Z,24.42
2022-08-27T12:16:16.364Z,24.45
2022-08-27T12:18:57.651Z,24.40
2022-08-27T12:21:41.814Z,24.32
2022-08-27T12:24:49.320Z,24.10
2022-08-27T12:27:34.388Z,23.98
2022-08-27T12:30:37.842Z,24.09
2022-08-27T12:33:13.782Z,24.24
2022-08-27T12:35:53.075Z,24.28
2022-08-27T12:38:50.388Z,24.32
2022-08-27T12:41:50.770Z,24.32
2022-08-27T12:44:27.578Z,24.34
2022-08-27T12:47:04.327Z,24.41
2022-08-27T12:49:39.444Z,24.40
2022-08-27T12:52:44.389Z,24.36
2022-08-27T12:55:40.393Z,24.38
2022-08-27T12:58:38.076Z,24.43
2022-08-27T13:01:33.957Z,24.50
2022-08-27T13:04:01.546Z,24.60
2022-08-27T13:06:34.826Z,24.71
2022-08-27T13:09:04.736Z,24.83
2022-08-27T13:11:34.670Z,24.81
2022-08-27T13:14:13.491Z,24.57
2022-08-27T13:16:50.360Z,24.29
2022-08-27T13:19:31.418Z,24.15
2022-08-27T13:21:59.628Z,24.01
2022-08-27T13:24:44.485Z,23.95
2022-08-27T13:27:11.462Z,23.85
2022-08-27T13:29:40.115Z,24.01
2022-08-27T13:32:07.497Z,24.18
2022-08-27T13:34:38.680Z,24.38
2022-08-27T13:37:21.013Z,24.44
2022-08-27T13:39:51.846Z,24.37
2022-08-27T13:42:20.279Z,24.34
2022-08-27T13:44:48.243Z,24.33
2022-08-27T13:47:22.114Z,24.31
2022-08-27T13:49:48.861Z,24.42
2022-08-27T13:52:27.474Z,24.47
2022-08-27T13:55:05.861Z,24.53
2022-08-27T13:57:50.626Z,24.58
2022-08-27T14:00:23.829Z,24.68
2022-08-27T14:02:55.815Z,24.84
2022-08-27T14:05:34.065Z,24.98
2022-08-27T14:08:12.726Z,25.08
2022-08-27T14:10:44.326Z,25.06
2022-08-27T14:13:23.606Z,25.06
2022-08-27T14:15:59.019Z,25.29
2022-08-27T14:18:55.102Z,25.55
2022-08-27T14:21:17.503Z,25.61
2022-08-27T14:23:44.426Z,25.74
2022-08-27T14:26:14.834Z,25.74
2022-08-27T14:28:42.621Z,25.68
2022-08-27T14:31:09.308Z,25.72
2022-08-27T14:33:36.026Z,25.73
2022-08-27T14:36:03.336Z,25.63
2022-08-27T14:38:31.985Z,25.45
2022-08-27T14:40:59.990Z,25.32
2022-08-27T14:43:27.229Z,25.23
2022-08-27T14:45:55.436Z,25.12
2022-08-27T14:48:28.846Z,24.97
2022-08-27T14:50:56.785Z,24.97
2022-08-27T14:53:23.752Z,25.06
2022-08-27T14:55:52.112Z,25.06
2022-08-27T14:58:19.357Z,24.97
2022-08-27T15:00:46.736Z,24.98
2022-08-27T15:03:14.043Z,24.91
2022-08-27T15:05:40.746Z,24.91
2022-08-27T15:08:13.340Z,24.90
2022-08-27T15:10:40.448Z,24.90
2022-08-27T15:13:07.338Z,24.94
2022-08-27T15:15:34.201Z,24.98
2022-08-27T15:18:00.863Z,24.88
2022-08-27T15:20:27.755Z,24.77
2022-08-27T15:22:54.339Z,24.76
2022-08-27T15:25:21.657Z,24.87
2022-08-27T15:27:49.315Z,24.80
2022-08-27T15:30:18.799Z,24.69
2022-08-27T15:32:47.932Z,24.63
2022-08-27T15:35:18.388Z,24.55
2022-08-27T15:37:45.798Z,24.50
2022-08-27T15:40:15.307Z,24.49
2022-08-27T15:42:42.481Z,24.46
2022-08-27T15:45:11.395Z,24.40
2022-08-27T15:47:38.054Z,24.41
2022-08-27T15:50:06.277Z,24.38
2022-08-27T15:52:40.475Z,24.36
2022-08-27T15:55:14.900Z,24.34
2022-08-27T15:57:41.545Z,24.27
2022-08-27T16:00:09.234Z,24.22
2022-08-27T16:02:36.242Z,24.19
2022-08-27T16:05:02.963Z,24.16
2022-08-27T16:07:30.335Z,24.11
2022-08-27T16:09:57.042Z,24.14
2022-08-27T16:12:27.073Z,24.12
2022-08-27T16:14:55.299Z,24.08
2022-08-27T16:17:22.869Z,24.01
2022-08-27T16:19:49.613Z,24.00
2022-08-27T16:22:16.353Z,23.98
2022-08-27T16:24:45.009Z,23.97
2022-08-27T16:27:11.950Z,23.97
2022-08-27T16:29:38.593Z,23.93
2022-08-27T16:32:07.618Z,23.91
2022-08-27T16:34:35.130Z,23.89
2022-08-27T16:37:01.785Z,23.96
2022-08-27T16:39:33.699Z,23.96
2022-08-27T16:42:02.400Z,23.93
2022-08-27T16:44:29.677Z,23.98
2022-08-27T16:46:56.298Z,23.94
2022-08-27T16:49:41.769Z,23.94
2022-08-27T16:52:09.142Z,23.90
2022-08-27T16:54:35.949Z,23.84
2022-08-27T16:57:02.828Z,23.84
2022-08-27T16:59:29.514Z,23.81
2022-08-27T17:01:57.001Z,23.78
2022-08-27T17:04:30.452Z,23.74
2022-08-27T17:07:02.209Z,23.72
2022-08-27T17:09:30.351Z,23.62
2022-08-27T17:11:58.369Z,23.54
2022-08-27T17:14:25.108Z,23.46
2022-08-27T17:16:54.115Z,23.38
2022-08-27T17:19:26.183Z,23.35
2022-08-27T17:21:54.940Z,23.30
2022-08-27T17:24:22.051Z,23.30
2022-08-27T17:26:48.863Z,23.27
2022-08-27T17:29:15.516Z,23.27
2022-08-27T17:31:43.489Z,23.26
2022-08-27T17:34:20.537Z,23.25
2022-08-27T17:36:47.365Z,23.23
2022-08-27T17:39:14.713Z,23.22
2022-08-27T17:41:44.294Z,23.20
2022-08-27T17:44:32.642Z,23.18
2022-08-27T17:47:02.982Z,23.11
2022-08-27T17:49:32.419Z,23.09
2022-08-27T17:52:02.427Z,23.03
2022-08-27T17:54:56.323Z,22.96
2022-08-27T17:57:26.552Z,22.89
2022-08-27T17:59:54.311Z,22.81
2022-08-27T18:02:29.130Z,22.77
2022-08-27T18:04:56.198Z,22.72
2022-08-27T18:07:24.367Z,22.66
2022-08-27T18:09:51.395Z,22.61
2022-08-27T18:12:22.720Z,22.56
2022-08-27T18:14:54.555Z,22.49
2022-08-27T18:17:21.202Z,22.48
2022-08-27T18:19:50.717Z,22.45
2022-08-27T18:22:18.320Z,22.41
2022-08-27T18:24:44.984Z,22.36
2022-08-27T18:27:11.648Z,22.34
2022-08-27T18:29:38.492Z,22.31
2022-08-27T18:32:05.372Z,22.29
2022-08-27T18:34:32.549Z,22.23
2022-08-27T18:36:59.393Z,22.21
2022-08-27T18:39:26.193Z,22.18
2022-08-27T18:41:53.281Z,22.19
2022-08-27T18:44:20.012Z,22.21
2022-08-27T18:46:46.907Z,22.16
2022-08-27T18:49:13.805Z,22.16
2022-08-27T18:51:43.038Z,22.15
2022-08-27T18:54:09.768Z,22.14
2022-08-27T18:56:36.416Z,22.15
2022-08-27T18:59:04.300Z,22.14
2022-08-27T19:01:31.876Z,22.13
2022-08-27T19:03:58.844Z,22.12
2022-08-27T19:06:25.656Z,22.11
2022-08-27T19:08:52.330Z,22.11
2022-08-27T19:11:19.116Z,22.08
2022-08-27T19:13:46.249Z,22.09
2022-08-27T19:16:39.167Z,22.14
2022-08-27T19:19:06.134Z,22.02
2022-08-27T19:21:33.479Z,21.92
2022-08-27T19:24:00.084Z,21.71
2022-08-27T19:26:27.220Z,21.66
2022-08-27T19:28:53.920Z,21.57
2022-08-27T19:31:20.636Z,21.54
2022-08-27T19:33:47.379Z,21.41
2022-08-27T19:36:18.590Z,21.24
2022-08-27T19:38:45.994Z,21.07
2022-08-27T19:41:13.040Z,20.89
2022-08-27T19:43:43.824Z,20.79
2022-08-27T19:46:13.697Z,20.65
2022-08-27T19:48:40.395Z,20.63
2022-08-27T19:51:07.054Z,20.53
2022-08-27T19:53:34.245Z,20.41
2022-08-27T19:56:01.284Z,20.30
2022-08-27T19:58:28.122Z,20.09
2022-08-27T20:00:55.029Z,20.01
2022-08-27T20:03:21.981Z,19.97
2022-08-27T20:05:51.609Z,19.99
2022-08-27T20:08:19.254Z,19.97
2022-08-27T20:10:46.226Z,19.93
2022-08-27T20:13:13.199Z,19.95
2022-08-27T20:15:40.617Z,19.98
2022-08-27T20:18:07.517Z,19.90
2022-08-27T20:20:35.673Z,19.92
2022-08-27T20:23:05.074Z,19.83
2022-08-27T20:25:33.468Z,19.84
2022-08-27T20:28:12.227Z,19.80
2022-08-27T20:30:48.684Z,19.82
2022-08-27T20:33:16.701Z,19.81
2022-08-27T20:35:44.733Z,19.79
2022-08-27T20:38:11.625Z,19.70
2022-08-27T20:40:38.419Z,19.63
2022-08-27T20:43:05.139Z,19.65
2022-08-27T20:45:32.313Z,19.58
2022-08-27T20:47:59.059Z,19.57
2022-08-27T20:50:25.781Z,19.58
2022-08-27T20:52:52.772Z,19.56
2022-08-27T20:55:19.816Z,19.48
2022-08-27T20:58:11.761Z,19.47
2022-08-27T21:00:41.970Z,19.46
2022-08-27T21:03:10.549Z,19.48
2022-08-27T21:05:37.810Z,19.46
2022-08-27T21:08:06.262Z,19.49
2022-08-27T21:10:33.713Z,19.48
2022-08-27T21:13:04.549Z,19.50
2022-08-27T21:15:32.072Z,19.46
2022-08-27T21:17:58.754Z,19.42
2022-08-27T21:20:25.570Z,19.41
2022-08-27T21:22:52.226Z,19.41
2022-08-27T21:25:19.029Z,19.36
2022-08-27T21:27:45.602Z,19.41
2022-08-27T21:30:13.024Z,19.32
2022-08-27T21:32:39.766Z,19.30
2022-08-27T21:35:06.985Z,19.24
2022-08-27T21:37:34.441Z,19.24
2022-08-27T21:40:01.293Z,19.24
2022-08-27T21:42:27.960Z,19.30
2022-08-27T21:44:54.614Z,19.29
2022-08-27T21:47:21.252Z,19.29
2022-08-27T21:49:47.864Z,19.23
2022-08-27T21:52:14.761Z,19.23
2022-08-27T21:54:42.240Z,19.22
2022-08-27T21:57:14.015Z,19.18
2022-08-27T21:59:44.497Z,19.16
2022-08-27T22:02:35.734Z,19.18
2022-08-27T22:04:58.323Z,19.15
2022-08-27T22:07:25.405Z,19.10
2022-08-27T22:09:51.999Z,19.09
2022-08-27T22:12:18.817Z,19.07
2022-08-27T22:14:45.483Z,19.10
2022-08-27T22:17:15.698Z,19.08
2022-08-27T22:19:42.760Z,19.12
2022-08-27T22:22:09.549Z,19.12
2022-08-27T22:24:36.365Z,19.14
2022-08-27T22:27:03.019Z,19.13
2022-08-27T22:29:30.712Z,19.16
2022-08-27T22:31:57.681Z,19.12
2022-08-27T22:34:24.366Z,19.09
2022-08-27T22:36:51.192Z,19.05
2022-08-27T22:39:17.840Z,19.02
2022-08-27T22:41:47.598Z,19.00
2022-08-27T22:44:15.674Z,18.99
2022-08-27T22:46:42.346Z,19.02
2022-08-27T22:49:09.221Z,19.03
2022-08-27T22:51:35.803Z,19.06
2022-08-27T22:54:02.410Z,19.04
2022-08-27T22:56:29.453Z,18.96
2022-08-27T22:58:56.202Z,18.97
2022-08-27T23:01:22.885Z,18.90
2022-08-27T23:03:49.692Z,18.92
2022-08-27T23:06:16.304Z,18.96
2022-08-27T23:08:43.065Z,18.93
2022-08-27T23:11:09.716Z,18.91
2022-08-27T23:13:36.498Z,18.86
2022-08-27T23:16:03.591Z,18.85
2022-08-27T23:18:30.539Z,18.87
2022-08-27T23:20:57.178Z,18.76
2022-08-27T23:23:26.733Z,18.65
2022-08-27T23:26:16.581Z,18.49
2022-08-27T23:28:44.232Z,18.46
2022-08-27T23:31:11.774Z,18.44
2022-08-27T23:33:39.085Z,18.42
2022-08-27T23:36:06.699Z,18.42
2022-08-27T23:38:33.855Z,18.46
2022-08-27T23:41:00.753Z,18.48
2022-08-27T23:43:28.181Z,18.48
2022-08-27T23:45:54.782Z,18.51
2022-08-27T23:48:21.620Z,18.50
2022-08-27T23:50:48.288Z,18.52
2022-08-27T23:53:14.966Z,18.49
2022-08-27T23:55:41.837Z,18.45
2022-08-27T23:58:08.959Z,18.45
